< < Back
Terminal Aerodrome Forecast


Current Version              Previous Versions:   1  2  3  4  5  6  7  8  9  

Terminal Aerodrome Forecast

449
FTUS42 KILM 251728
TAFFLO
TAF
KFLO 251728Z 2518/2618 08006KT P6SM VCSH SCT050 BKN100
     FM260200 07004KT P6SM SCT010 BKN025
     FM261200 06008KT P6SM BKN035 BKN100=

Latest METAR

319
SAUS70 KWBC 261000 RRI
MTRFLO
METAR KFLO 260953Z AUTO 05005KT 10SM CLR 21/19 A3009 RMK AO2 SLP185
T02060189


USA.gov is the U.S. government's official web portal to all federal, state and local government web resources and services.